Time;durP1;ratioP1;P1;durP2;ratioP2;P2;SDS_P1;SDS_P2;PMS_P1;PMS_P2;Temp;Humidity;BMP_temperature;BMP_pressure;BME280_temperature;BME280_humidity;BME280_pressure;Samples;Min_cycle;Max_cycle;Signal;HPM_P1;HPM_P2
2021/10/04 00:00:09;;;;;;;4.65;3.85;;;;;;;4.68;95.53;93788.84;1842399;77;21065;-83
2021/10/04 00:02:38;;;;;;;5.08;4.17;;;;;;;4.68;95.02;93784.80;1845814;77;21106;-84
2021/10/04 00:05:06;;;;;;;5.20;3.17;;;;;;;4.63;94.63;93785.28;1780655;77;21600;-84
2021/10/04 00:07:32;;;;;;;7.45;3.55;;;;;;;4.56;94.29;93787.80;1805421;77;21658;-85
2021/10/04 00:09:59;;;;;;;6.65;4.08;;;;;;;4.50;93.99;93787.05;1837598;75;21505;-85
2021/10/04 00:12:27;;;;;;;6.97;4.22;;;;;;;4.44;94.25;93793.27;1803172;78;21552;-85
2021/10/04 00:14:53;;;;;;;6.05;4.12;;;;;;;4.38;94.06;93793.30;1786981;79;21765;-84
2021/10/04 00:17:21;;;;;;;6.97;4.05;;;;;;;4.31;93.85;93797.16;1788853;78;21076;-83
2021/10/04 00:19:47;;;;;;;8.50;4.22;;;;;;;4.24;93.80;93791.02;1823510;77;21022;-83
2021/10/04 00:22:14;;;;;;;6.05;3.85;;;;;;;4.17;93.46;93794.09;1848154;77;21025;-84
2021/10/04 00:24:41;;;;;;;5.95;3.92;;;;;;;4.06;93.21;93793.27;1826599;77;21863;-83
2021/10/04 00:27:08;;;;;;;6.25;3.80;;;;;;;3.97;93.37;93793.97;1827706;77;21727;-83
2021/10/04 00:29:35;;;;;;;6.50;4.28;;;;;;;3.86;93.26;93794.25;1775222;79;21790;-83
2021/10/04 00:32:08;;;;;;;6.05;4.12;;;;;;;3.75;93.42;93806.05;1819220;77;21090;-85
2021/10/04 00:34:35;;;;;;;6.95;4.42;;;;;;;3.64;93.32;93799.59;1836482;76;21008;-87
2021/10/04 00:37:01;;;;;;;5.67;4.25;;;;;;;3.53;93.63;93793.91;1828476;77;21038;-86
2021/10/04 00:39:30;;;;;;;5.55;4.12;;;;;;;3.45;93.61;93794.06;1826279;77;21171;-86
2021/10/04 00:41:56;;;;;;;4.62;3.95;;;;;;;3.36;93.94;93800.92;1818538;78;21033;-85
2021/10/04 00:44:23;;;;;;;5.97;3.55;;;;;;;3.32;94.04;93796.79;1861851;75;21013;-86
2021/10/04 00:46:50;;;;;;;5.25;3.62;;;;;;;3.26;94.04;93791.41;1852014;76;21026;-85
2021/10/04 00:49:16;;;;;;;6.15;3.27;;;;;;;3.22;94.16;93791.09;1823719;77;21065;-85
2021/10/04 00:51:42;;;;;;;5.75;3.67;;;;;;;3.19;94.00;93790.42;1852407;76;21720;-86
2021/10/04 00:56:36;;;;;;;5.62;3.90;;;;;;;3.10;93.97;93788.66;1849848;76;21071;-86
2021/10/04 00:59:02;;;;;;;6.67;4.28;;;;;;;3.07;94.71;93795.27;1762091;76;21521;-86
2021/10/04 01:01:30;;;;;;;4.35;3.70;;;;;;;3.07;94.71;93795.27;1736683;79;21046;-87
2021/10/04 01:03:59;;;;;;;9.25;3.60;;;;;;;3.03;94.60;93789.00;1809097;79;21138;-87
2021/10/04 01:06:27;;;;;;;4.33;3.22;;;;;;;3.01;94.64;93796.60;1816323;78;21050;-87
2021/10/04 01:08:55;;;;;;;3.85;3.45;;;;;;;2.92;94.91;93794.05;1830023;77;21084;-88
2021/10/04 01:11:22;;;;;;;5.92;3.55;;;;;;;2.83;95.24;93796.86;1824244;77;21003;-88
2021/10/04 01:13:49;;;;;;;6.40;3.83;;;;;;;2.76;95.86;93795.86;1780230;78;21057;-88
2021/10/04 01:16:15;;;;;;;4.40;3.50;;;;;;;2.72;96.70;93793.62;1807174;77;21740;-87
2021/10/04 01:18:43;;;;;;;6.22;4.47;;;;;;;2.68;96.81;93791.60;1816551;77;21166;-87
2021/10/04 01:21:09;;;;;;;9.58;4.00;;;;;;;2.66;97.24;93788.45;1804927;77;21073;-86
2021/10/04 01:23:36;;;;;;;3.30;3.00;;;;;;;2.63;97.29;93785.12;1815754;77;21105;-89
2021/10/04 01:26:04;;;;;;;4.97;3.42;;;;;;;2.63;97.50;93793.18;1837166;76;21018;-89
2021/10/04 01:28:31;;;;;;;5.10;3.15;;;;;;;2.62;97.67;93788.13;1809963;78;21109;-86
2021/10/04 01:30:57;;;;;;;6.50;3.33;;;;;;;2.63;97.49;93789.15;1809974;78;21573;-85
2021/10/04 01:33:24;;;;;;;4.22;3.00;;;;;;;2.66;97.23;93793.05;1813805;77;21101;-86
2021/10/04 01:35:50;;;;;;;5.75;3.20;;;;;;;2.65;96.61;93788.23;1802224;79;20999;-85
2021/10/04 01:38:16;;;;;;;4.85;3.00;;;;;;;2.63;96.13;93789.69;1800037;78;21056;-87
2021/10/04 01:40:43;;;;;;;4.17;3.40;;;;;;;2.59;95.79;93785.55;1783991;79;21131;-86
2021/10/04 01:43:11;;;;;;;4.00;3.60;;;;;;;2.56;96.08;93786.80;1775816;79;20971;-87
2021/10/04 01:45:38;;;;;;;5.10;3.65;;;;;;;2.53;96.06;93789.59;1768894;77;21177;-85
2021/10/04 01:48:05;;;;;;;6.78;3.72;;;;;;;2.50;96.35;93784.88;1832289;77;21069;-86
2021/10/04 01:50:35;;;;;;;3.83;3.10;;;;;;;2.50;96.37;93784.10;1805611;78;21006;-86
2021/10/04 01:53:04;;;;;;;3.55;3.15;;;;;;;2.50;96.31;93785.45;1810725;78;21549;-86
2021/10/04 01:55:31;;;;;;;5.80;3.83;;;;;;;2.49;96.50;93790.59;1819523;78;21041;-85
2021/10/04 01:57:58;;;;;;;2.85;2.60;;;;;;;2.49;96.75;93790.59;1818115;77;21552;-86
2021/10/04 02:00:24;;;;;;;4.70;2.75;;;;;;;2.50;96.75;93794.28;1828122;77;21077;-85
2021/10/04 02:02:52;;;;;;;4.62;3.70;;;;;;;2.49;96.58;93796.75;1820238;77;21234;-85
2021/10/04 02:05:20;;;;;;;3.08;2.42;;;;;;;2.47;96.74;93798.97;1835082;77;21185;-84
2021/10/04 02:07:48;;;;;;;4.90;3.08;;;;;;;2.44;96.59;93798.28;1835562;77;20962;-87
2021/10/04 02:10:19;;;;;;;4.40;3.20;;;;;;;2.39;96.62;93804.66;1822345;77;21026;-86
2021/10/04 02:12:46;;;;;;;4.03;2.95;;;;;;;2.36;96.65;93809.91;1841538;77;21490;-87
2021/10/04 02:15:12;;;;;;;4.50;3.22;;;;;;;2.33;96.73;93801.18;1833684;77;21001;-84
2021/10/04 02:17:39;;;;;;;4.75;2.90;;;;;;;2.34;96.83;93804.11;1828161;77;21432;-84
2021/10/04 02:20:09;;;;;;;3.98;3.10;;;;;;;2.36;96.73;93809.34;1830612;77;21119;-86
2021/10/04 02:22:36;;;;;;;4.05;3.17;;;;;;;2.36;96.70;93810.69;1830455;77;20974;-85
2021/10/04 02:25:03;;;;;;;3.90;2.98;;;;;;;2.34;96.63;93816.19;1832996;77;21616;-86
2021/10/04 02:27:31;;;;;;;4.50;3.02;;;;;;;2.31;96.61;93816.28;1814628;78;21033;-87
2021/10/04 02:29:58;;;;;;;3.42;3.00;;;;;;;2.29;96.26;93811.02;1816998;77;21497;-86
2021/10/04 02:32:24;;;;;;;3.95;3.35;;;;;;;2.26;96.10;93816.51;1830094;77;21053;-85
2021/10/04 02:34:50;;;;;;;3.27;2.87;;;;;;;2.21;96.09;93816.70;1830242;77;21003;-84
2021/10/04 02:37:17;;;;;;;7.30;3.02;;;;;;;2.18;96.02;93818.17;1836519;77;21556;-85
2021/10/04 02:39:43;;;;;;;3.10;2.62;;;;;;;2.18;95.84;93816.83;1831788;77;21022;-86
2021/10/04 02:42:10;;;;;;;3.08;2.72;;;;;;;2.20;95.84;93813.80;1842570;77;21383;-84
2021/10/04 02:44:37;;;;;;;3.58;2.80;;;;;;;2.19;95.85;93817.05;1832517;77;21037;-84
2021/10/04 02:47:03;;;;;;;5.55;3.05;;;;;;;2.20;95.73;93819.17;1828748;77;21536;-84
2021/10/04 02:49:30;;;;;;;4.85;2.85;;;;;;;2.18;95.78;93816.83;1849766;77;20994;-86
2021/10/04 02:51:57;;;;;;;15.25;3.40;;;;;;;2.17;95.75;93816.58;1823835;77;21018;-85
2021/10/04 02:54:23;;;;;;;4.10;3.20;;;;;;;2.16;95.62;93822.30;1792329;78;21103;-86
2021/10/04 02:56:50;;;;;;;7.10;2.72;;;;;;;2.15;95.63;93827.44;1793380;79;21037;-86
2021/10/04 02:59:16;;;;;;;5.95;3.62;;;;;;;2.11;95.78;93831.34;1793745;78;22319;-85
2021/10/04 03:01:43;;;;;;;4.17;3.00;;;;;;;2.07;95.83;93825.08;1801489;78;21592;-85
2021/10/04 03:04:10;;;;;;;7.30;3.00;;;;;;;2.08;96.17;93832.00;1802883;77;21054;-86
2021/10/04 03:06:36;;;;;;;3.95;2.95;;;;;;;2.12;96.21;93831.56;1823348;77;21147;-85
2021/10/04 03:09:03;;;;;;;3.58;3.00;;;;;;;2.10;96.04;93824.95;1808487;77;21509;-87
2021/10/04 03:11:29;;;;;;;4.53;3.30;;;;;;;2.08;95.99;93830.66;1812977;77;21054;-86
2021/10/04 03:13:56;;;;;;;2.83;2.40;;;;;;;2.07;95.81;93834.47;1776314;77;21476;-87
2021/10/04 03:16:22;;;;;;;3.55;2.85;;;;;;;2.03;95.62;93837.58;1782906;78;21038;-86
2021/10/04 03:18:49;;;;;;;4.20;3.20;;;;;;;1.97;95.60;93839.45;1782575;78;21130;-86
2021/10/04 03:21:15;;;;;;;4.67;3.00;;;;;;;1.89;95.87;93835.74;1773679;78;21053;-85
2021/10/04 03:23:41;;;;;;;3.42;3.12;;;;;;;1.85;96.07;93840.98;1784630;79;21527;-85
2021/10/04 03:26:08;;;;;;;4.25;2.70;;;;;;;1.83;96.22;93837.05;1792422;78;21037;-85
2021/10/04 03:28:34;;;;;;;4.12;2.87;;;;;;;1.83;96.18;93839.17;1801454;77;21034;-85
2021/10/04 03:31:01;;;;;;;4.33;3.15;;;;;;;1.82;95.89;93842.19;1786994;79;21114;-88
2021/10/04 03:33:28;;;;;;;3.62;3.05;;;;;;;1.80;95.87;93834.45;1790589;79;21560;-86
2021/10/04 03:35:56;;;;;;;5.53;3.00;;;;;;;1.79;96.08;93829.44;1821968;77;21028;-85
2021/10/04 03:38:22;;;;;;;4.12;3.22;;;;;;;1.77;96.20;93831.12;1808274;77;21086;-87
2021/10/04 03:40:49;;;;;;;2.67;2.47;;;;;;;1.77;96.02;93836.48;1794155;78;21031;-86
2021/10/04 03:43:15;;;;;;;3.90;2.72;;;;;;;1.72;96.10;93837.23;1797483;79;21096;-86
2021/10/04 03:45:41;;;;;;;4.67;3.60;;;;;;;1.66;96.20;93835.31;1780611;80;21550;-86
2021/10/04 03:48:14;;;;;;;3.58;2.90;;;;;;;1.63;96.44;93837.31;1789693;79;21073;-86
2021/10/04 03:50:41;;;;;;;3.47;3.08;;;;;;;1.62;96.68;93835.75;1790110;79;21028;-85
2021/10/04 03:53:07;;;;;;;4.65;2.95;;;;;;;1.58;96.99;93838.30;1787251;79;21084;-86
2021/10/04 03:55:34;;;;;;;3.52;2.90;;;;;;;1.58;97.05;93832.94;1742453;80;21666;-85
2021/10/04 03:58:01;;;;;;;3.15;2.85;;;;;;;1.55;97.00;93831.47;1788458;78;21629;-85
2021/10/04 04:00:27;;;;;;;3.83;3.10;;;;;;;1.52;96.90;93833.45;1773339;79;21068;-85
2021/10/04 04:02:54;;;;;;;4.58;3.15;;;;;;;1.50;97.10;93834.33;1755588;79;21062;-86
2021/10/04 04:05:21;;;;;;;6.08;4.33;;;;;;;1.48;96.83;93838.69;1759674;78;20998;-85
2021/10/04 04:07:47;;;;;;;4.03;2.95;;;;;;;1.48;96.80;93840.02;1782978;77;21119;-85
2021/10/04 04:10:16;;;;;;;4.92;3.35;;;;;;;1.49;96.75;93841.59;1825657;76;21076;-86
2021/10/04 04:12:43;;;;;;;4.33;3.20;;;;;;;1.49;96.45;93837.56;1811067;77;21037;-86
2021/10/04 04:15:10;;;;;;;6.95;3.40;;;;;;;1.45;96.19;93829.95;1803388;77;21059;-86
2021/10/04 04:17:36;;;;;;;3.42;3.12;;;;;;;1.40;96.15;93836.86;1782215;78;21652;-88
2021/10/04 04:20:06;;;;;;;5.17;3.50;;;;;;;1.32;96.33;93831.80;1755660;80;21929;-85
2021/10/04 04:22:33;;;;;;;4.45;3.30;;;;;;;1.29;96.66;93841.04;1791913;77;21031;-86
2021/10/04 04:25:00;;;;;;;4.03;3.30;;;;;;;1.26;96.99;93839.00;1824446;77;21010;-86
2021/10/04 04:27:26;;;;;;;5.28;4.67;;;;;;;1.23;97.17;93841.77;1789047;79;20998;-86
2021/10/04 04:29:53;;;;;;;5.50;3.80;;;;;;;1.21;97.27;93839.43;1785595;78;21092;-85
2021/10/04 04:32:21;;;;;;;5.90;4.58;;;;;;;1.20;97.45;93844.56;1767683;79;21116;-84
2021/10/04 04:34:47;;;;;;;6.08;4.97;;;;;;;1.18;97.52;93846.77;1780035;78;21851;-84
2021/10/04 04:37:14;;;;;;;7.55;4.72;;;;;;;1.15;97.54;93842.61;1800886;79;20982;-84
2021/10/04 04:39:40;;;;;;;6.60;4.22;;;;;;;1.16;97.59;93844.17;1795154;79;20976;-84
2021/10/04 04:42:07;;;;;;;4.55;3.83;;;;;;;1.16;97.28;93847.64;1826701;76;21101;-83
2021/10/04 04:44:34;;;;;;;6.80;5.33;;;;;;;1.14;96.95;93846.41;1828534;76;21256;-85
2021/10/04 04:47:01;;;;;;;7.40;4.95;;;;;;;1.15;97.07;93856.79;1797508;77;21042;-83
2021/10/04 04:49:33;;;;;;;7.92;4.67;;;;;;;1.16;96.96;93846.86;1798587;78;21053;-83
2021/10/04 04:51:58;;;;;;;5.15;4.03;;;;;;;1.16;97.03;93844.95;1836723;77;20994;-83
2021/10/04 04:54:25;;;;;;;4.00;3.60;;;;;;;1.19;96.89;93852.91;1841158;75;21053;-84
2021/10/04 04:56:59;;;;;;;5.50;4.40;;;;;;;1.19;96.92;93850.23;1827845;75;21104;-87
2021/10/04 04:59:25;;;;;;;5.00;4.00;;;;;;;1.20;96.85;93854.47;1804478;77;21038;-84
2021/10/04 05:01:54;;;;;;;5.58;4.20;;;;;;;1.23;96.85;93850.36;1776798;77;21104;-85
2021/10/04 05:04:22;;;;;;;6.60;4.55;;;;;;;1.28;97.05;93852.31;1816912;76;21068;-86
2021/10/04 05:06:51;;;;;;;6.60;4.70;;;;;;;1.37;97.05;93845.55;1785175;77;21072;-86
2021/10/04 05:09:18;;;;;;;5.20;4.20;;;;;;;1.39;97.07;93851.34;1811167;77;21117;-85
2021/10/04 05:11:47;;;;;;;8.40;4.37;;;;;;;1.44;96.83;93849.27;1795207;77;21077;-86
2021/10/04 05:14:13;;;;;;;7.35;4.58;;;;;;;1.59;97.20;93845.78;1772412;80;21072;-85
2021/10/04 05:16:40;;;;;;;5.47;4.60;;;;;;;1.95;98.61;93855.86;1739928;81;21119;-87
2021/10/04 05:19:07;;;;;;;7.67;4.25;;;;;;;2.29;97.44;93850.70;1774771;78;21539;-86
2021/10/04 05:21:33;;;;;;;6.08;4.53;;;;;;;2.47;95.94;93851.88;1749677;80;21681;-86
2021/10/04 05:24:02;;;;;;;8.35;4.72;;;;;;;2.55;94.36;93850.98;1772601;79;21129;-86
2021/10/04 05:26:28;;;;;;;5.58;4.42;;;;;;;2.65;94.13;93850.56;1781773;78;21058;-85
2021/10/04 05:28:55;;;;;;;6.92;5.20;;;;;;;2.80;93.58;93852.58;1751159;78;21038;-85
2021/10/04 05:31:21;;;;;;;7.30;5.10;;;;;;;2.95;92.70;93858.41;1825402;77;21652;-84
2021/10/04 05:33:48;;;;;;;6.58;5.17;;;;;;;3.06;91.74;93862.22;1817429;77;21591;-83
2021/10/04 05:36:14;;;;;;;7.62;5.90;;;;;;;3.20;91.18;93853.80;1825982;77;21430;-83
2021/10/04 05:38:41;;;;;;;6.65;5.20;;;;;;;3.33;91.33;93858.05;1816319;77;21610;-84
2021/10/04 05:41:09;;;;;;;6.17;5.33;;;;;;;3.52;90.99;93812.52;1790471;78;21134;-86
2021/10/04 05:43:36;;;;;;;5.30;4.80;;;;;;;3.77;89.86;93850.11;1785322;78;21263;-84
2021/10/04 05:46:04;;;;;;;5.03;4.55;;;;;;;4.19;88.77;93851.84;1830605;77;22156;-85
2021/10/04 05:48:31;;;;;;;7.75;6.03;;;;;;;4.63;87.48;93844.54;1793466;77;21221;-86
2021/10/04 05:50:58;;;;;;;7.47;6.00;;;;;;;4.93;85.48;93842.77;1788464;77;21025;-86
2021/10/04 05:53:24;;;;;;;8.88;4.85;;;;;;;5.19;84.90;93844.91;1834052;75;21726;-84
2021/10/04 05:58:20;;;;;;;6.80;5.17;;;;;;;5.65;82.24;93840.33;1780599;78;21085;-86
2021/10/04 06:00:46;;;;;;;6.25;4.53;;;;;;;5.62;80.61;93843.16;1814259;77;21049;-86
2021/10/04 06:03:13;;;;;;;5.45;4.45;;;;;;;5.52;79.59;93844.47;1795918;77;21037;-85
2021/10/04 06:05:39;;;;;;;4.90;4.05;;;;;;;5.34;79.50;93842.75;1804132;76;21080;-86
2021/10/04 06:08:06;;;;;;;4.72;4.28;;;;;;;5.15;79.92;93845.94;1849882;75;21009;-86
2021/10/04 06:10:32;;;;;;;5.80;4.50;;;;;;;4.98;80.46;93846.53;1817854;77;21591;-87
2021/10/04 06:13:02;;;;;;;7.97;5.17;;;;;;;4.86;80.76;93845.28;1776159;77;21127;-89
2021/10/04 06:15:29;;;;;;;5.03;4.45;;;;;;;4.71;81.38;93849.54;1751899;79;21014;-85
2021/10/04 06:17:58;;;;;;;8.58;4.58;;;;;;;4.57;82.30;93838.41;1802951;77;21598;-85
2021/10/04 06:20:29;;;;;;;5.72;4.45;;;;;;;4.51;83.28;93850.55;1813153;77;21359;-85
2021/10/04 06:22:56;;;;;;;6.50;4.25;;;;;;;4.44;83.46;93849.02;1776830;77;21362;-87
2021/10/04 06:25:23;;;;;;;5.83;5.12;;;;;;;4.38;84.08;93855.23;1797581;78;21104;-88
2021/10/04 06:27:51;;;;;;;5.35;4.30;;;;;;;4.36;84.59;93850.20;1820782;76;21128;-88
2021/10/04 06:30:21;;;;;;;5.80;4.55;;;;;;;4.41;85.42;93850.51;1825687;75;21089;-86
2021/10/04 06:32:48;;;;;;;5.97;3.83;;;;;;;4.52;86.53;93846.18;1810851;77;21091;-83
2021/10/04 06:35:15;;;;;;;7.15;4.45;;;;;;;4.74;87.11;93850.73;1819750;77;21743;-85
2021/10/04 06:37:42;;;;;;;4.92;3.80;;;;;;;4.97;86.84;93854.41;1813159;77;21493;-85
2021/10/04 06:40:19;;;;;;;4.95;4.40;;;;;;;5.19;86.94;93855.70;1761493;78;21025;-83
2021/10/04 06:42:46;;;;;;;6.67;5.08;;;;;;;5.39;86.76;93844.39;1815343;78;21021;-87
2021/10/04 06:45:15;;;;;;;6.55;5.22;;;;;;;5.57;86.90;93853.66;1828596;77;21043;-85
2021/10/04 06:47:43;;;;;;;5.65;4.70;;;;;;;5.76;86.62;93852.91;1842955;76;21131;-85
2021/10/04 06:50:10;;;;;;;6.92;4.15;;;;;;;5.94;86.80;93849.80;1846917;76;21587;-87
2021/10/04 06:52:39;;;;;;;4.40;3.45;;;;;;;6.10;86.21;93843.01;1819111;77;21218;-86
2021/10/04 06:55:07;;;;;;;3.90;3.55;;;;;;;6.26;85.63;93837.72;1842483;76;21006;-86
2021/10/04 06:57:36;;;;;;;11.18;3.85;;;;;;;6.44;85.10;93838.06;1831745;76;21113;-85
2021/10/04 07:00:09;;;;;;;8.23;4.40;;;;;;;6.62;84.99;93836.23;1823926;77;21114;-85
2021/10/04 07:02:36;;;;;;;4.60;4.17;;;;;;;6.82;85.30;93832.34;1844256;76;21038;-87
2021/10/04 07:05:21;;;;;;;;;;;;;;;;;;;;;
2021/10/04 07:07:41;;;;;;;5.65;3.22;;;;;;;7.34;84.89;93838.96;1797199;78;20986;-85
2021/10/04 07:10:08;;;;;;;6.62;3.00;;;;;;;7.53;84.10;93830.73;1830620;75;21056;-88
2021/10/04 07:12:35;;;;;;;4.10;3.45;;;;;;;7.68;82.42;93826.30;1835260;75;21482;-86
2021/10/04 07:15:04;;;;;;;6.37;3.30;;;;;;;7.79;81.20;93825.87;1824063;76;21006;-85
2021/10/04 07:17:31;;;;;;;4.83;3.08;;;;;;;7.83;79.88;93833.27;1829463;77;21058;-86
2021/10/04 07:19:58;;;;;;;6.35;3.10;;;;;;;7.87;80.13;93835.44;1812325;77;21029;-87
2021/10/04 07:22:24;;;;;;;5.17;3.47;;;;;;;7.94;80.05;93832.25;1830909;77;21050;-87
2021/10/04 07:24:50;;;;;;;4.15;3.58;;;;;;;8.04;79.27;93832.16;1831368;77;21126;-85
2021/10/04 07:27:17;;;;;;;4.40;3.55;;;;;;;8.12;79.38;93828.38;1826382;76;21644;-85
2021/10/04 07:29:44;;;;;;;4.53;3.87;;;;;;;8.19;79.34;93823.05;1809637;77;21600;-86
2021/10/04 07:32:10;;;;;;;3.83;3.33;;;;;;;8.35;79.31;93827.47;1803350;77;20994;-86
2021/10/04 07:34:37;;;;;;;7.28;3.98;;;;;;;8.51;78.58;93819.95;1777597;77;21477;-87
2021/10/04 07:37:03;;;;;;;3.77;3.40;;;;;;;8.64;77.44;93814.45;1805197;77;21886;-88
2021/10/04 07:39:30;;;;;;;3.20;2.92;;;;;;;8.79;77.17;93820.02;1814568;77;21002;-86
2021/10/04 07:41:57;;;;;;;3.75;3.45;;;;;;;8.98;75.77;93807.00;1835542;77;21030;-86
2021/10/04 07:44:24;;;;;;;3.45;3.10;;;;;;;9.22;75.96;93808.38;1788092;79;21026;-88
2021/10/04 07:46:51;;;;;;;5.78;3.30;;;;;;;9.43;74.08;93806.95;1802950;78;21077;-86
2021/10/04 07:49:18;;;;;;;5.72;3.00;;;;;;;9.62;73.01;93812.69;1767913;79;21334;-86
2021/10/04 07:51:45;;;;;;;2.83;2.58;;;;;;;9.78;72.32;93799.61;1779121;77;21733;-87
2021/10/04 07:54:13;;;;;;;6.20;3.30;;;;;;;9.93;71.52;93810.73;1777467;79;21033;-88
2021/10/04 07:56:41;;;;;;;3.85;3.12;;;;;;;10.08;71.78;93812.94;1791967;79;21018;-86
2021/10/04 07:59:11;;;;;;;3.87;3.47;;;;;;;10.29;70.23;93811.48;1764856;79;21587;-87
2021/10/04 08:01:37;;;;;;;3.60;2.98;;;;;;;10.44;69.75;93805.70;1787621;79;21787;-89
2021/10/04 08:04:05;;;;;;;6.08;3.20;;;;;;;10.60;69.39;93808.65;1804216;78;21041;-87
2021/10/04 08:06:34;;;;;;;3.92;2.83;;;;;;;10.74;69.39;93798.39;1816687;78;21047;-86
2021/10/04 08:09:04;;;;;;;2.98;2.67;;;;;;;10.89;68.37;93800.73;1798020;78;21108;-85
2021/10/04 08:11:30;;;;;;;4.35;2.70;;;;;;;11.05;67.05;93791.41;1826836;77;21081;-85
2021/10/04 08:14:00;;;;;;;3.37;2.70;;;;;;;11.20;66.43;93794.33;1816675;77;21148;-87
2021/10/04 08:16:26;;;;;;;3.42;2.47;;;;;;;11.31;65.83;93784.20;1825887;78;21105;-87
2021/10/04 08:18:53;;;;;;;6.50;2.40;;;;;;;11.41;65.53;93786.14;1827473;77;21067;-87
2021/10/04 08:21:21;;;;;;;2.72;2.52;;;;;;;11.54;64.02;93787.09;1835132;77;21586;-87
2021/10/04 08:23:48;;;;;;;5.22;2.52;;;;;;;11.63;64.46;93786.12;1839649;77;21058;-86
2021/10/04 08:26:14;;;;;;;3.80;2.92;;;;;;;11.75;64.15;93782.97;1835863;77;21077;-85
2021/10/04 08:28:41;;;;;;;4.15;2.92;;;;;;;11.87;64.52;93777.70;1802009;77;21009;-86
2021/10/04 08:31:07;;;;;;;2.98;2.65;;;;;;;12.03;64.35;93773.17;1777888;77;21053;-84
2021/10/04 08:33:34;;;;;;;3.00;2.70;;;;;;;12.20;64.02;93768.83;1771005;77;21110;-87
2021/10/04 08:36:01;;;;;;;3.77;2.83;;;;;;;12.33;63.81;93763.11;1737491;79;21500;-86
2021/10/04 08:38:27;;;;;;;3.15;2.60;;;;;;;12.51;63.81;93759.70;1777772;77;21214;-85
2021/10/04 08:40:54;;;;;;;3.58;3.02;;;;;;;12.70;65.12;93754.91;1821083;76;20995;-86
2021/10/04 08:43:21;;;;;;;2.98;2.67;;;;;;;12.94;64.08;93756.70;1830832;76;21014;-86
2021/10/04 08:45:48;;;;;;;8.90;2.50;;;;;;;13.15;63.78;93759.06;1829666;77;21753;-85
2021/10/04 08:48:14;;;;;;;2.80;2.60;;;;;;;13.32;62.72;93754.08;1808323;77;21056;-85
2021/10/04 08:50:42;;;;;;;3.10;2.80;;;;;;;13.46;61.58;93749.82;1848264;76;21051;-87
2021/10/04 08:53:09;;;;;;;3.83;2.47;;;;;;;13.59;61.10;93754.20;1833997;76;20967;-86
2021/10/04 08:55:35;;;;;;;5.15;3.00;;;;;;;13.72;61.05;93746.25;1786795;78;21081;-88
2021/10/04 08:58:10;;;;;;;5.47;3.02;;;;;;;13.88;60.43;93745.69;1786768;78;21580;-85
2021/10/04 09:00:37;;;;;;;4.08;2.98;;;;;;;13.98;59.89;93739.33;1780671;78;21042;-85
2021/10/04 09:03:04;;;;;;;2.98;2.65;;;;;;;14.12;59.70;93742.49;1785421;77;21323;-86
2021/10/04 09:05:31;;;;;;;3.25;2.98;;;;;;;14.24;60.31;93736.47;1746423;79;21098;-86
2021/10/04 09:08:09;;;;;;;5.45;2.90;;;;;;;14.38;60.34;93732.19;1800665;78;21050;-86
2021/10/04 09:10:38;;;;;;;3.60;2.83;;;;;;;14.54;59.06;93732.97;1748928;79;20974;-84
2021/10/04 09:13:12;;;;;;;2.65;2.45;;;;;;;14.65;58.08;93723.24;1766521;78;20986;-86
2021/10/04 09:15:46;;;;;;;4.55;2.70;;;;;;;14.72;57.79;93728.62;1762868;77;21869;-84
2021/10/04 09:18:23;;;;;;;3.25;2.80;;;;;;;14.82;58.07;93729.06;1787474;77;21028;-85
2021/10/04 09:21:00;;;;;;;3.05;2.77;;;;;;;14.93;57.15;93731.61;1746229;80;21019;-84
2021/10/04 09:23:48;;;;;;;3.33;3.02;;;;;;;15.01;56.79;93722.89;1759999;79;21248;-84
2021/10/04 09:26:29;;;;;;;3.30;2.80;;;;;;;15.12;56.48;93720.55;1814014;77;21613;-83
2021/10/04 09:29:08;;;;;;;3.33;3.02;;;;;;;15.24;55.97;93724.09;1821240;77;21210;-84
2021/10/04 09:31:36;;;;;;;3.10;2.83;;;;;;;15.36;56.61;93721.34;1824881;77;21027;-87
2021/10/04 09:34:08;;;;;;;3.47;2.80;;;;;;;15.49;56.63;93723.03;1827869;77;21088;-86
2021/10/04 09:36:53;;;;;;;4.85;2.70;;;;;;;15.61;56.32;93714.02;1829315;77;21093;-87
2021/10/04 09:39:32;;;;;;;3.05;2.75;;;;;;;15.72;55.87;93711.31;1776171;80;21049;-86
2021/10/04 09:42:08;;;;;;;4.62;3.00;;;;;;;15.84;55.61;93710.52;1778418;79;21112;-84
2021/10/04 09:44:56;;;;;;;3.60;2.50;;;;;;;15.93;55.38;93703.86;1784758;78;21465;-85
2021/10/04 09:47:39;;;;;;;4.87;2.77;;;;;;;16.01;54.90;93705.26;1771170;79;21459;-84
2021/10/04 09:50:27;;;;;;;4.75;2.75;;;;;;;16.08;54.58;93702.38;1820030;77;21095;-84
2021/10/04 09:52:56;;;;;;;4.47;2.30;;;;;;;16.16;54.13;93703.00;1760655;78;21538;-84
2021/10/04 09:55:30;;;;;;;3.42;2.58;;;;;;;16.24;53.15;93702.42;1845268;77;21153;-86
2021/10/04 09:58:17;;;;;;;3.17;2.70;;;;;;;16.31;53.19;93691.90;1845383;76;21057;-84
2021/10/04 10:00:51;;;;;;;4.80;2.52;;;;;;;16.41;53.65;93690.13;1796720;77;21093;-85
2021/10/04 10:03:21;;;;;;;2.30;2.20;;;;;;;16.53;52.38;93688.70;1772428;79;21552;-85
2021/10/04 10:05:53;;;;;;;4.20;2.10;;;;;;;16.62;52.26;93686.89;1768474;80;21082;-85
2021/10/04 10:08:21;;;;;;;2.65;2.20;;;;;;;16.71;51.25;93681.59;1814398;77;21109;-86
2021/10/04 10:10:50;;;;;;;2.42;2.22;;;;;;;16.78;51.61;93682.67;1828670;76;21045;-86
2021/10/04 10:13:18;;;;;;;2.65;2.42;;;;;;;16.86;51.48;93673.83;1816005;76;21063;-84
2021/10/04 10:16:08;;;;;;;4.22;2.80;;;;;;;16.97;50.68;93676.33;1781620;76;21083;-85
2021/10/04 10:18:53;;;;;;;6.33;2.80;;;;;;;17.05;50.87;93674.94;1788777;76;21062;-84
2021/10/04 10:21:21;;;;;;;2.40;2.20;;;;;;;17.15;50.21;93671.74;1824290;77;21619;-84
2021/10/04 10:23:57;;;;;;;3.37;2.33;;;;;;;17.22;50.55;93672.34;1794464;77;21038;-85
2021/10/04 10:26:47;;;;;;;3.00;2.30;;;;;;;17.27;50.17;93660.08;1813602;76;21007;-85
2021/10/04 10:29:22;;;;;;;3.37;2.02;;;;;;;17.36;49.98;93663.57;1811371;76;21066;-85
2021/10/04 10:31:57;;;;;;;;;;;;;;;17.43;48.61;93658.66;1805160;77;21038;-84
2021/10/04 10:34:39;;;;;;;2.77;2.20;;;;;;;17.51;47.51;93655.72;1823012;77;20333;-84
2021/10/04 10:37:23;;;;;;;2.58;2.20;;;;;;;17.60;46.88;93653.11;1804520;77;21078;-85
2021/10/04 10:39:57;;;;;;;1.92;1.80;;;;;;;17.70;46.26;93644.57;1848065;76;21394;-84
2021/10/04 10:42:27;;;;;;;3.33;2.77;;;;;;;17.82;45.84;93643.09;1835467;77;21072;-85
2021/10/04 10:45:04;;;;;;;11.08;2.42;;;;;;;17.88;46.50;93644.11;1847655;76;21049;-86
2021/10/04 10:47:41;;;;;;;3.50;2.20;;;;;;;17.94;46.02;93640.20;1789003;77;21038;-85
2021/10/04 10:50:26;;;;;;;3.27;2.75;;;;;;;17.99;45.00;93640.30;1814505;77;21062;-84
2021/10/04 10:53:03;;;;;;;3.25;2.50;;;;;;;18.03;45.10;93638.98;1784546;79;28240;-86
2021/10/04 10:55:39;;;;;;;3.30;2.27;;;;;;;18.07;43.84;93635.52;1822067;77;21016;-84
2021/10/04 10:58:12;;;;;;;3.15;2.02;;;;;;;18.03;45.72;93629.95;1810081;77;21058;-85
2021/10/04 11:01:16;;;;;;;3.35;2.17;;;;;;;18.03;46.09;93622.47;1832284;76;21123;-85
2021/10/04 11:03:53;;;;;;;2.58;2.10;;;;;;;18.10;46.22;93634.64;1844036;76;21021;-84
2021/10/04 11:06:35;;;;;;;2.15;1.98;;;;;;;18.12;45.32;93623.95;1830890;77;20999;-84
2021/10/04 11:09:01;;;;;;;4.28;3.05;;;;;;;18.11;44.89;93621.05;1779184;78;21038;-84
2021/10/04 11:11:30;;;;;;;2.60;2.40;;;;;;;18.05;45.17;93624.77;1790613;78;21217;-85
2021/10/04 11:14:10;;;;;;;3.80;2.50;;;;;;;18.02;45.08;93625.06;1802796;75;21599;-83
2021/10/04 11:16:39;;;;;;;2.90;2.10;;;;;;;18.00;45.63;93621.96;1776140;77;21075;-85
2021/10/04 11:19:07;;;;;;;3.10;2.35;;;;;;;17.98;45.50;93618.89;1802906;77;21049;-84
2021/10/04 11:21:37;;;;;;;3.47;2.10;;;;;;;17.93;44.91;93615.29;1783428;78;21324;-84
2021/10/04 11:24:08;;;;;;;2.30;2.10;;;;;;;17.86;44.17;93618.23;1811037;77;21599;-83
2021/10/04 11:26:38;;;;;;;2.30;2.10;;;;;;;17.83;44.09;93617.77;1794705;77;21106;-85
2021/10/04 11:29:06;;;;;;;4.67;1.85;;;;;;;17.82;43.97;93617.58;1795681;78;21041;-85
2021/10/04 11:31:44;;;;;;;4.92;2.00;;;;;;;17.83;44.11;93615.02;1783179;78;21106;-86
2021/10/04 11:34:18;;;;;;;3.83;1.95;;;;;;;17.86;44.32;93607.23;1777230;78;21140;-83
2021/10/04 11:39:22;;;;;;;2.58;2.37;;;;;;;17.95;43.96;93603.26;1786443;78;21126;-86
2021/10/04 11:42:04;;;;;;;2.27;2.08;;;;;;;17.98;44.17;93602.39;1775442;79;21059;-82
2021/10/04 11:44:31;;;;;;;2.08;1.98;;;;;;;18.04;44.33;93603.98;1825595;77;21092;-82
2021/10/04 11:47:04;;;;;;;4.92;2.10;;;;;;;18.05;44.55;93595.27;1846340;77;21017;-87
2021/10/04 11:49:39;;;;;;;2.35;2.15;;;;;;;18.09;44.72;93593.21;1849719;75;21559;-84
2021/10/04 11:52:16;;;;;;;4.92;2.10;;;;;;;18.13;44.68;93595.86;1796177;77;21286;-87
2021/10/04 11:54:52;;;;;;;;;;;;;;;18.15;44.64;93589.30;1844734;77;21064;-83
2021/10/04 11:57:25;;;;;;;3.67;2.40;;;;;;;18.19;44.78;93590.72;1843844;77;20186;-85